createdAt,value
2022-11-17T00:01:20.877Z,15.27
2022-11-17T00:03:49.149Z,17.13
2022-11-17T00:06:17.369Z,11.77
2022-11-17T00:08:45.846Z,13.50
2022-11-17T00:11:13.156Z,12.60
2022-11-17T00:13:58.950Z,13.53
2022-11-17T00:16:26.291Z,12.83
2022-11-17T00:19:12.675Z,10.90
2022-11-17T00:21:40.156Z,26.77
2022-11-17T00:24:07.642Z,17.87
2022-11-17T00:26:35.958Z,13.30
2022-11-17T00:29:05.459Z,13.80
2022-11-17T00:31:52.511Z,14.77
2022-11-17T00:34:21.286Z,13.30
2022-11-17T00:36:52.725Z,13.20
2022-11-17T00:39:21.246Z,13.93
2022-11-17T00:41:48.597Z,9.17
2022-11-17T00:44:16.460Z,10.10
2022-11-17T00:46:43.796Z,7.50
2022-11-17T00:49:11.795Z,7.53
2022-11-17T00:51:39.546Z,9.17
2022-11-17T00:54:07.527Z,5.83
2022-11-17T00:56:34.890Z,6.50
2022-11-17T00:59:02.175Z,5.47
2022-11-17T01:01:30.982Z,6.37
2022-11-17T01:04:03.655Z,7.03
2022-11-17T01:06:32.792Z,8.40
2022-11-17T01:09:01.221Z,9.20
2022-11-17T01:11:28.768Z,10.13
2022-11-17T01:13:57.771Z,8.97
2022-11-17T01:16:25.255Z,9.67
2022-11-17T01:18:52.916Z,8.87
2022-11-17T01:21:22.090Z,9.53
2022-11-17T01:23:50.984Z,9.57
2022-11-17T01:26:19.434Z,9.53
2022-11-17T01:28:47.864Z,9.67
2022-11-17T01:31:16.657Z,13.93
2022-11-17T01:33:44.320Z,12.90
2022-11-17T01:36:16.074Z,14.77
2022-11-17T01:38:43.890Z,14.43
2022-11-17T01:41:29.330Z,18.70
2022-11-17T01:43:57.754Z,16.53
2022-11-17T01:46:33.083Z,14.23
2022-11-17T01:49:03.570Z,14.77
2022-11-17T01:51:32.488Z,10.47
2022-11-17T01:54:00.221Z,10.90
2022-11-17T01:56:29.628Z,8.53
2022-11-17T01:59:03.748Z,10.63
2022-11-17T02:01:31.391Z,12.57
2022-11-17T02:03:59.096Z,12.43
2022-11-17T02:06:35.119Z,11.53
2022-11-17T02:09:03.210Z,13.20
2022-11-17T02:11:36.199Z,10.67
2022-11-17T02:14:05.326Z,9.00
2022-11-17T02:16:32.770Z,8.33
2022-11-17T02:19:00.338Z,7.30
2022-11-17T02:21:27.774Z,8.87
2022-11-17T02:24:07.855Z,8.80
2022-11-17T02:26:44.416Z,7.90
2022-11-17T02:29:17.899Z,8.27
2022-11-17T02:31:49.849Z,7.03
2022-11-17T02:34:33.805Z,6.77
2022-11-17T02:37:01.145Z,5.97
2022-11-17T02:39:31.445Z,5.83
2022-11-17T02:42:08.622Z,4.77
2022-11-17T02:44:39.996Z,7.60
2022-11-17T02:47:13.470Z,5.13
2022-11-17T02:49:44.111Z,5.33
2022-11-17T02:52:11.641Z,4.13
2022-11-17T02:54:38.999Z,4.90
2022-11-17T02:57:06.265Z,5.30
2022-11-17T02:59:35.454Z,5.67
2022-11-17T03:02:09.739Z,6.13
2022-11-17T03:05:09.637Z,6.30
2022-11-17T03:07:42.954Z,5.30
2022-11-17T03:10:17.433Z,4.63
2022-11-17T03:13:02.285Z,5.17
2022-11-17T03:15:44.822Z,4.87
2022-11-17T03:18:25.414Z,3.87
2022-11-17T03:21:04.494Z,5.43
2022-11-17T03:23:37.031Z,6.20
2022-11-17T03:26:06.396Z,4.97
2022-11-17T03:28:33.885Z,5.20
2022-11-17T03:31:02.364Z,4.33
2022-11-17T03:33:29.917Z,6.40
2022-11-17T03:36:00.489Z,5.37
2022-11-17T03:38:29.843Z,5.30
2022-11-17T03:40:58.775Z,4.77
2022-11-17T03:43:28.047Z,5.83
2022-11-17T03:45:56.852Z,7.10
2022-11-17T03:48:30.380Z,7.03
2022-11-17T03:51:10.740Z,7.73
2022-11-17T03:53:38.669Z,6.00
2022-11-17T03:56:19.231Z,7.33
2022-11-17T03:59:01.883Z,6.57
2022-11-17T04:01:30.665Z,6.40
2022-11-17T04:03:58.068Z,5.73
2022-11-17T04:06:25.320Z,6.90
2022-11-17T04:08:52.674Z,6.20
2022-11-17T04:11:38.518Z,6.30
2022-11-17T04:14:24.670Z,5.83
2022-11-17T04:16:51.976Z,6.87
2022-11-17T04:19:19.221Z,4.80
2022-11-17T04:21:46.521Z,4.93
2022-11-17T04:24:13.976Z,3.97
2022-11-17T04:27:00.277Z,4.23
2022-11-17T04:29:28.546Z,3.70
2022-11-17T04:31:55.860Z,4.07
2022-11-17T04:34:23.144Z,3.47
2022-11-17T04:36:50.927Z,3.03
2022-11-17T04:39:18.362Z,3.40
2022-11-17T04:41:56.948Z,3.47
2022-11-17T04:44:28.522Z,4.80
2022-11-17T04:46:56.625Z,4.13
2022-11-17T04:49:24.720Z,4.67
2022-11-17T04:51:52.948Z,7.67
2022-11-17T04:54:21.975Z,4.40
2022-11-17T04:56:49.437Z,6.00
2022-11-17T04:59:16.809Z,5.13
2022-11-17T05:01:44.202Z,6.50
2022-11-17T05:04:12.757Z,4.93
2022-11-17T05:06:44.202Z,5.23
2022-11-17T05:09:15.130Z,4.27
2022-11-17T05:12:01.525Z,5.73
2022-11-17T05:14:29.761Z,5.73
2022-11-17T05:17:10.805Z,5.87
2022-11-17T05:19:39.620Z,6.97
2022-11-17T05:22:28.018Z,5.63
2022-11-17T05:24:55.878Z,5.33
2022-11-17T05:27:23.481Z,4.03
2022-11-17T05:29:50.820Z,6.73
2022-11-17T05:32:18.397Z,5.10
2022-11-17T05:34:45.782Z,6.40
2022-11-17T05:37:13.244Z,5.80
2022-11-17T05:39:40.509Z,4.93
2022-11-17T05:42:07.801Z,9.80
2022-11-17T05:44:35.100Z,5.73
2022-11-17T05:47:02.369Z,4.90
2022-11-17T05:49:29.842Z,6.67
2022-11-17T05:51:57.077Z,5.90
2022-11-17T05:54:24.458Z,6.70
2022-11-17T05:56:53.470Z,5.17
2022-11-17T05:59:29.996Z,4.63
2022-11-17T06:02:16.213Z,4.47
2022-11-17T06:04:46.319Z,3.80
2022-11-17T06:07:13.817Z,5.37
2022-11-17T06:09:42.554Z,6.60
2022-11-17T06:12:12.021Z,4.50
2022-11-17T06:14:39.947Z,5.20
2022-11-17T06:17:14.295Z,4.27
2022-11-17T06:19:46.112Z,4.93
2022-11-17T06:22:13.850Z,5.57
2022-11-17T06:24:44.799Z,6.83
2022-11-17T06:27:12.960Z,5.33
2022-11-17T06:29:44.373Z,5.60
2022-11-17T06:32:13.657Z,6.93
2022-11-17T06:34:41.242Z,8.90
2022-11-17T06:37:08.612Z,10.40
2022-11-17T06:39:35.865Z,12.97
2022-11-17T06:42:03.150Z,14.97
2022-11-17T06:44:30.459Z,13.33
2022-11-17T06:46:57.841Z,8.87
2022-11-17T06:49:25.161Z,8.07
2022-11-17T06:51:53.100Z,8.07
2022-11-17T06:54:20.429Z,5.33
2022-11-17T06:56:49.728Z,7.93
2022-11-17T06:59:17.299Z,9.00
2022-11-17T07:01:44.648Z,7.43
2022-11-17T07:04:11.909Z,9.53
2022-11-17T07:06:39.668Z,8.13
2022-11-17T07:09:07.031Z,7.67
2022-11-17T07:11:36.430Z,7.17
2022-11-17T07:14:03.870Z,7.60
2022-11-17T07:16:32.638Z,8.33
2022-11-17T07:19:03.506Z,8.07
2022-11-17T07:21:31.178Z,7.27
2022-11-17T07:23:58.443Z,8.87
2022-11-17T07:26:25.702Z,8.23
2022-11-17T07:28:53.075Z,7.57
2022-11-17T07:31:20.339Z,5.67
2022-11-17T07:33:47.690Z,6.13
2022-11-17T07:36:15.324Z,4.77
2022-11-17T07:38:42.726Z,6.10
2022-11-17T07:41:10.570Z,5.97
2022-11-17T07:43:37.890Z,5.60
2022-11-17T07:46:06.228Z,5.40
2022-11-17T07:48:34.129Z,7.13
2022-11-17T07:51:01.884Z,6.77
2022-11-17T07:53:29.233Z,6.83
2022-11-17T07:55:56.880Z,5.90
2022-11-17T07:58:25.645Z,6.07
2022-11-17T08:00:53.508Z,6.60
2022-11-17T08:03:20.855Z,4.83
2022-11-17T08:05:48.276Z,8.67
2022-11-17T08:08:15.734Z,5.60
2022-11-17T08:10:45.853Z,7.77
2022-11-17T08:13:14.226Z,6.53
2022-11-17T08:15:41.533Z,7.23
2022-11-17T08:18:08.797Z,6.17
2022-11-17T08:20:36.306Z,7.10
2022-11-17T08:23:03.621Z,7.10
2022-11-17T08:25:30.976Z,6.77
2022-11-17T08:27:58.906Z,6.93
2022-11-17T08:30:26.637Z,8.20
2022-11-17T08:32:54.691Z,6.07
2022-11-17T08:35:23.772Z,4.93
2022-11-17T08:37:51.286Z,7.20
2022-11-17T08:40:18.734Z,5.03
2022-11-17T08:42:46.354Z,5.47
2022-11-17T08:45:14.450Z,6.80
2022-11-17T08:47:41.977Z,4.23
2022-11-17T08:50:09.681Z,6.83
2022-11-17T08:52:37.340Z,5.30
2022-11-17T08:55:08.598Z,5.13
2022-11-17T08:57:36.222Z,6.07
2022-11-17T09:00:03.704Z,7.63
2022-11-17T09:02:31.068Z,6.80
2022-11-17T09:04:58.511Z,6.40
2022-11-17T09:07:28.374Z,7.60
2022-11-17T09:10:00.103Z,5.43
2022-11-17T09:12:27.545Z,5.77
2022-11-17T09:14:54.804Z,5.73
2022-11-17T09:17:22.216Z,7.20
2022-11-17T09:19:49.471Z,7.73
2022-11-17T09:22:16.878Z,4.00
2022-11-17T09:24:44.391Z,5.63
2022-11-17T09:27:11.703Z,6.40
2022-11-17T09:29:39.249Z,7.33
2022-11-17T09:32:06.515Z,10.60
2022-11-17T09:34:33.842Z,12.23
2022-11-17T09:37:01.208Z,8.67
2022-11-17T09:39:28.523Z,8.60
2022-11-17T09:41:57.128Z,8.07
2022-11-17T09:44:40.433Z,7.33
2022-11-17T09:47:13.873Z,6.30
2022-11-17T09:49:58.357Z,7.63
2022-11-17T09:52:30.172Z,5.93
2022-11-17T09:54:59.559Z,6.40
2022-11-17T09:57:29.993Z,8.17
2022-11-17T10:00:02.759Z,7.47
2022-11-17T10:02:32.244Z,9.10
2022-11-17T10:04:59.890Z,7.97
2022-11-17T10:07:27.506Z,9.77
2022-11-17T10:09:55.626Z,8.40
2022-11-17T10:12:26.258Z,7.90
2022-11-17T10:14:55.221Z,7.27
2022-11-17T10:17:22.533Z,8.00
2022-11-17T10:19:49.863Z,6.47
2022-11-17T10:22:20.977Z,7.63
2022-11-17T10:24:55.470Z,11.73
2022-11-17T10:27:22.989Z,6.60
2022-11-17T10:29:57.596Z,11.27
2022-11-17T10:32:25.429Z,6.43
2022-11-17T10:34:54.195Z,7.10
2022-11-17T10:37:26.669Z,7.23
2022-11-17T10:40:04.330Z,6.97
2022-11-17T10:42:31.794Z,7.73
2022-11-17T10:45:00.660Z,7.03
2022-11-17T10:47:28.093Z,9.40
2022-11-17T10:50:14.431Z,8.23
2022-11-17T10:52:41.990Z,6.77
2022-11-17T10:55:24.862Z,5.63
2022-11-17T10:57:54.057Z,7.30
2022-11-17T11:00:25.642Z,9.23
2022-11-17T11:03:03.759Z,6.60
2022-11-17T11:05:31.131Z,5.33
2022-11-17T11:08:17.069Z,6.77
2022-11-17T11:10:46.762Z,6.67
2022-11-17T11:13:32.922Z,6.63
2022-11-17T11:16:00.572Z,8.57
2022-11-17T11:18:30.323Z,10.23
2022-11-17T11:20:59.728Z,7.50
2022-11-17T11:23:30.045Z,6.87
2022-11-17T11:26:03.661Z,7.63
2022-11-17T11:28:54.500Z,8.30
2022-11-17T11:31:45.987Z,7.60
2022-11-17T11:34:17.508Z,7.57
2022-11-17T11:36:44.840Z,11.07
2022-11-17T11:39:17.580Z,11.03
2022-11-17T11:41:47.946Z,9.20
2022-11-17T11:44:33.644Z,12.87
2022-11-17T11:47:01.060Z,10.53
2022-11-17T11:49:50.140Z,15.33
2022-11-17T11:52:21.946Z,12.53
2022-11-17T11:54:57.062Z,11.80
2022-11-17T11:57:28.004Z,9.33
2022-11-17T12:00:05.417Z,10.57
2022-11-17T12:02:45.067Z,11.17
2022-11-17T12:05:29.821Z,8.83
2022-11-17T12:08:11.027Z,9.63
2022-11-17T12:10:45.461Z,10.27
2022-11-17T12:13:14.150Z,10.07
2022-11-17T12:15:41.489Z,8.97
2022-11-17T12:18:35.083Z,9.73
2022-11-17T12:21:02.931Z,8.77
2022-11-17T12:23:47.774Z,9.50
2022-11-17T12:26:28.863Z,9.17
2022-11-17T12:29:14.862Z,6.57
2022-11-17T12:31:43.636Z,7.40
2022-11-17T12:34:23.533Z,8.57
2022-11-17T12:37:08.331Z,7.23
2022-11-17T12:39:54.332Z,9.07
2022-11-17T12:42:21.625Z,9.30
2022-11-17T12:44:49.420Z,7.87
2022-11-17T12:47:16.740Z,6.60
2022-11-17T12:49:44.020Z,6.83
2022-11-17T12:52:18.037Z,7.40
2022-11-17T12:54:54.794Z,9.00
2022-11-17T12:57:25.839Z,8.67
2022-11-17T13:00:07.722Z,8.20
2022-11-17T13:02:38.024Z,7.97
2022-11-17T13:05:25.539Z,7.83
2022-11-17T13:08:12.382Z,6.90
2022-11-17T13:10:39.764Z,11.13
2022-11-17T13:13:14.089Z,9.07
2022-11-17T13:15:42.171Z,9.70
2022-11-17T13:18:18.238Z,9.70
2022-11-17T13:20:48.164Z,10.20
2022-11-17T13:23:20.293Z,12.20
2022-11-17T13:25:47.822Z,12.07
2022-11-17T13:28:41.466Z,10.60
2022-11-17T13:31:22.243Z,14.37
2022-11-17T13:34:16.702Z,13.17
2022-11-17T13:36:54.261Z,11.53
2022-11-17T13:39:27.097Z,11.00
2022-11-17T13:41:55.287Z,12.43
2022-11-17T13:44:27.929Z,17.53
2022-11-17T13:46:56.204Z,12.27
2022-11-17T13:49:39.717Z,10.27
2022-11-17T13:52:14.965Z,13.67
2022-11-17T13:54:45.764Z,11.60
2022-11-17T13:57:21.466Z,13.90
2022-11-17T13:59:48.856Z,11.90
2022-11-17T14:02:21.842Z,11.03
2022-11-17T14:05:07.815Z,11.43
2022-11-17T14:07:36.676Z,10.43
2022-11-17T14:10:22.643Z,11.57
2022-11-17T14:13:13.088Z,12.67
2022-11-17T14:15:46.808Z,10.43
2022-11-17T14:18:20.783Z,10.63
2022-11-17T14:20:48.085Z,13.53
2022-11-17T14:23:15.553Z,12.63
2022-11-17T14:25:43.846Z,16.77
2022-11-17T14:28:15.167Z,13.13
2022-11-17T14:30:42.739Z,14.03
2022-11-17T14:33:13.518Z,14.40
2022-11-17T14:35:41.635Z,11.23
2022-11-17T14:38:15.992Z,14.47
2022-11-17T14:40:43.301Z,14.80
2022-11-17T14:43:10.621Z,11.97
2022-11-17T14:45:37.898Z,10.63
2022-11-17T14:48:08.773Z,14.43
2022-11-17T14:50:36.235Z,11.97
2022-11-17T14:53:03.654Z,12.47
2022-11-17T14:55:30.974Z,13.40
2022-11-17T14:57:58.237Z,12.37
2022-11-17T15:00:25.665Z,12.03
2022-11-17T15:02:52.892Z,12.20
2022-11-17T15:05:20.188Z,17.57
2022-11-17T15:07:47.632Z,14.27
2022-11-17T15:10:14.943Z,13.40
2022-11-17T15:12:42.284Z,14.20
2022-11-17T15:15:09.713Z,14.70
2022-11-17T15:17:37.050Z,14.33
2022-11-17T15:20:05.119Z,12.77
2022-11-17T15:22:32.402Z,15.17
2022-11-17T15:24:59.783Z,11.67
2022-11-17T15:27:27.148Z,13.60
2022-11-17T15:29:54.445Z,13.30
2022-11-17T15:32:21.735Z,13.23
2022-11-17T15:34:49.123Z,12.50
2022-11-17T15:37:17.733Z,13.47
2022-11-17T15:39:45.120Z,12.73
2022-11-17T15:42:12.394Z,13.87
2022-11-17T15:44:39.946Z,13.10
2022-11-17T15:47:07.291Z,13.27
2022-11-17T15:49:34.699Z,14.47
2022-11-17T15:52:02.005Z,15.93
2022-11-17T15:54:29.332Z,14.67
2022-11-17T15:56:56.744Z,15.13
2022-11-17T15:59:24.047Z,18.00
2022-11-17T16:01:51.434Z,19.47
2022-11-17T16:04:18.837Z,19.67
2022-11-17T16:06:47.011Z,19.80
2022-11-17T16:09:15.412Z,18.63
2022-11-17T16:11:43.384Z,18.70
2022-11-17T16:14:11.773Z,17.67
2022-11-17T16:16:40.260Z,16.47
2022-11-17T16:19:07.895Z,17.70
2022-11-17T16:21:35.204Z,16.97
2022-11-17T16:24:03.386Z,16.37
2022-11-17T16:26:30.921Z,17.53
2022-11-17T16:29:02.580Z,16.77
2022-11-17T16:31:31.316Z,18.87
2022-11-17T16:33:59.861Z,17.93
2022-11-17T16:36:32.861Z,20.90
2022-11-17T16:39:03.980Z,19.97
2022-11-17T16:41:38.466Z,19.87
2022-11-17T16:44:13.262Z,20.47
2022-11-17T16:46:42.796Z,21.27
2022-11-17T16:49:11.528Z,20.00
2022-11-17T16:51:38.857Z,25.23
2022-11-17T16:54:07.258Z,21.87
2022-11-17T16:56:35.138Z,31.47
2022-11-17T16:59:02.623Z,27.03
2022-11-17T17:01:31.922Z,23.43
2022-11-17T17:04:08.866Z,23.90
2022-11-17T17:06:37.523Z,26.00
2022-11-17T17:09:06.020Z,23.90
2022-11-17T17:11:34.307Z,23.03
2022-11-17T17:14:03.465Z,23.33
2022-11-17T17:16:32.043Z,21.00
2022-11-17T17:19:00.550Z,19.90
2022-11-17T17:21:28.906Z,19.80
2022-11-17T17:23:56.202Z,17.13
2022-11-17T17:26:24.538Z,22.53
2022-11-17T17:28:53.137Z,21.47
2022-11-17T17:31:22.246Z,21.20
2022-11-17T17:33:50.847Z,23.83
2022-11-17T17:36:19.218Z,22.57
2022-11-17T17:38:50.287Z,21.23
2022-11-17T17:41:22.733Z,22.80
2022-11-17T17:43:54.660Z,21.13
2022-11-17T17:46:21.996Z,22.00
2022-11-17T17:48:49.338Z,23.57
2022-11-17T17:51:17.862Z,23.07
2022-11-17T17:53:45.337Z,24.60
2022-11-17T17:56:14.976Z,22.83
2022-11-17T17:58:42.529Z,23.50
2022-11-17T18:01:10.975Z,23.33
2022-11-17T18:03:38.908Z,24.00
2022-11-17T18:06:06.693Z,25.37
2022-11-17T18:08:35.601Z,26.50
2022-11-17T18:11:03.777Z,26.77
2022-11-17T18:13:34.916Z,24.83
2022-11-17T18:16:06.417Z,24.73
2022-11-17T18:18:34.332Z,26.00
2022-11-17T18:21:02.827Z,28.50
2022-11-17T18:23:30.798Z,26.43
2022-11-17T18:25:58.816Z,26.47
2022-11-17T18:28:26.329Z,27.07
2022-11-17T18:30:53.620Z,28.40
2022-11-17T18:33:20.887Z,32.20
2022-11-17T18:35:48.406Z,32.00
2022-11-17T18:38:15.789Z,32.30
2022-11-17T18:40:43.135Z,28.83
2022-11-17T18:43:10.438Z,27.20
2022-11-17T18:45:38.457Z,29.30
2022-11-17T18:48:06.356Z,30.63
2022-11-17T18:50:35.440Z,27.57
2022-11-17T18:53:10.722Z,32.40
2022-11-17T18:55:38.189Z,29.70
2022-11-17T18:58:05.583Z,40.07
2022-11-17T19:00:33.218Z,37.83
2022-11-17T19:03:00.567Z,35.77
2022-11-17T19:05:27.846Z,36.13
2022-11-17T19:07:57.275Z,38.57
2022-11-17T19:10:24.648Z,37.77
2022-11-17T19:12:51.910Z,35.40
2022-11-17T19:15:19.193Z,32.03
2022-11-17T19:17:46.447Z,35.27
2022-11-17T19:20:14.090Z,39.87
2022-11-17T19:22:41.474Z,45.13
2022-11-17T19:25:08.848Z,38.53
2022-11-17T19:27:36.196Z,36.50
2022-11-17T19:30:03.677Z,37.30
2022-11-17T19:32:31.422Z,38.80
2022-11-17T19:35:09.644Z,37.30
2022-11-17T19:37:41.161Z,36.83
2022-11-17T19:40:08.859Z,37.07
2022-11-17T19:42:36.398Z,33.00
2022-11-17T19:45:03.740Z,36.97
2022-11-17T19:47:31.057Z,38.40
2022-11-17T19:49:58.427Z,38.27
2022-11-17T19:52:27.125Z,37.40
2022-11-17T19:54:54.730Z,44.57
2022-11-17T19:57:21.993Z,35.23
2022-11-17T19:59:49.286Z,36.63
2022-11-17T20:02:16.666Z,34.67
2022-11-17T20:04:43.957Z,38.27
2022-11-17T20:07:11.304Z,38.80
2022-11-17T20:09:38.810Z,37.17
2022-11-17T20:12:06.180Z,37.17
2022-11-17T20:14:33.550Z,38.47
2022-11-17T20:17:01.008Z,36.97
2022-11-17T20:19:28.278Z,35.00
2022-11-17T20:21:55.587Z,35.43
2022-11-17T20:24:22.950Z,36.80
2022-11-17T20:26:50.699Z,33.60
2022-11-17T20:29:18.535Z,37.07
2022-11-17T20:31:46.043Z,35.97
2022-11-17T20:34:13.487Z,33.17
2022-11-17T20:36:40.963Z,35.57
2022-11-17T20:39:08.312Z,34.13
2022-11-17T20:41:35.734Z,36.53
2022-11-17T20:44:03.528Z,36.33
2022-11-17T20:46:30.946Z,35.83
2022-11-17T20:48:58.341Z,35.10
2022-11-17T20:51:26.385Z,38.20
2022-11-17T20:53:53.723Z,35.47
2022-11-17T20:56:21.282Z,35.43
2022-11-17T20:58:48.593Z,37.00
2022-11-17T21:01:17.345Z,35.90
2022-11-17T21:03:48.250Z,32.60
2022-11-17T21:06:16.342Z,34.93
2022-11-17T21:08:44.511Z,34.53
2022-11-17T21:11:36.405Z,33.77
2022-11-17T21:14:07.585Z,35.90
2022-11-17T21:16:35.009Z,39.77
2022-11-17T21:19:02.319Z,40.03
2022-11-17T21:21:29.687Z,39.00
2022-11-17T21:23:57.149Z,37.03
2022-11-17T21:26:24.635Z,37.23
2022-11-17T21:28:52.815Z,38.33
2022-11-17T21:31:21.289Z,40.30
2022-11-17T21:33:51.942Z,47.10
2022-11-17T21:36:19.441Z,49.27
2022-11-17T21:38:47.029Z,46.47
2022-11-17T21:41:15.579Z,46.53
2022-11-17T21:43:43.753Z,46.67
2022-11-17T21:46:15.482Z,43.33
2022-11-17T21:48:43.845Z,44.50
2022-11-17T21:51:15.937Z,44.00
2022-11-17T21:53:44.110Z,45.77
2022-11-17T21:56:12.067Z,40.90
2022-11-17T21:58:39.676Z,36.43
2022-11-17T22:01:11.575Z,46.07
2022-11-17T22:03:39.242Z,46.23
2022-11-17T22:06:10.578Z,49.80
2022-11-17T22:08:41.889Z,38.57
2022-11-17T22:11:10.194Z,42.07
2022-11-17T22:13:37.781Z,39.67
2022-11-17T22:16:12.034Z,40.10
2022-11-17T22:18:39.398Z,42.03
2022-11-17T22:21:07.154Z,37.20
2022-11-17T22:23:34.752Z,41.10
2022-11-17T22:26:03.890Z,39.43
2022-11-17T22:28:31.639Z,42.43
2022-11-17T22:30:58.954Z,38.83
2022-11-17T22:33:26.333Z,38.70
2022-11-17T22:35:53.669Z,41.53
2022-11-17T22:38:20.985Z,38.33
2022-11-17T22:40:48.641Z,36.23
2022-11-17T22:43:16.008Z,40.97
2022-11-17T22:45:43.368Z,40.17
2022-11-17T22:48:10.686Z,38.73
2022-11-17T22:50:38.095Z,43.67
2022-11-17T22:53:05.473Z,42.53
2022-11-17T22:55:33.703Z,43.77
2022-11-17T22:58:01.087Z,39.83
2022-11-17T23:00:28.575Z,42.93
2022-11-17T23:02:55.902Z,41.30
2022-11-17T23:05:23.539Z,42.17
2022-11-17T23:07:50.789Z,33.63
2022-11-17T23:10:18.307Z,38.53
2022-11-17T23:12:45.604Z,40.87
2022-11-17T23:15:12.883Z,42.40
2022-11-17T23:17:40.423Z,39.63
2022-11-17T23:20:08.084Z,37.73
2022-11-17T23:22:35.965Z,40.90
2022-11-17T23:25:03.623Z,36.67
2022-11-17T23:27:30.904Z,41.37
2022-11-17T23:29:58.324Z,38.67
2022-11-17T23:32:25.599Z,41.97
2022-11-17T23:34:52.868Z,40.13
2022-11-17T23:37:20.535Z,38.27
2022-11-17T23:39:47.968Z,39.30
2022-11-17T23:42:15.450Z,38.80
2022-11-17T23:44:42.801Z,41.40
2022-11-17T23:47:10.126Z,39.50
2022-11-17T23:49:37.383Z,38.57
2022-11-17T23:52:04.791Z,41.53
2022-11-17T23:54:32.085Z,41.70
2022-11-17T23:56:59.558Z,40.77
2022-11-17T23:59:26.907Z,37.03
